Dagmar, MT (59219)

9:50 PM MST on February 13, 2016 (GMT -0700)
MesoWest | | Change Station
CLOSE
Current Station
Personal Weather Station
Location: Raymond, MT
Elevation: 2250 ft
Nearby Weather Stations

Elev 2250 ft 48.79 °N, 104.52 °W | Updated 50 minutes ago

Overcast
Overcast
27 °F
Feels Like 13 °F
N
21
Wind Variable Wind from NW
Gusts 28.0 mph

Today
High -- | Low -- °F
--% Chance of Precip.
Yesterday
High -- | Low -- °F
Precip. -- in
Pressure 29.80 in
Visibility 6.0 miles
Clouds Overcast 900 ft
Windchill 13 °F
Dew Point 23 °F
Humidity 86%
Rainfall in
Snow Depth Not available.
7:08 AM 5:14 PM
Waxing Crescent, 37% visible
SPECI KISN 140400Z AUTO 32018G24KT 6SM BR OVC009 M01/M03 A2980 RMK AO2 CIG 007V010 T10111028 $
Pressure 29.80 in
Visibility 6.0 miles
Clouds Overcast 900 ft
Windchill 13 °F
Dew Point 23 °F
Humidity 86%
Rainfall in
Snow Depth Not available.
7:08 AM 5:14 PM
Waxing Crescent, 37% visible
SPECI KISN 140400Z AUTO 32018G24KT 6SM BR OVC009 M01/M03 A2980 RMK AO2 CIG 007V010 T10111028 $

10-Day Weather Forecast

Almanac

Astronomy

Feb. 13, 2016 Rise Set
Actual Time
Civil Twilight
Nautical Twilight
Astronomical Twilight
Moon
Length of Visible Light
Length of Day
Tomorrow will be .
, % of the Moon is Illuminated

Today's Extremes

State Highs State Lows

Community

WunderPhotos

Upload Photos

1,892,746 photos uploaded!

WunderBlog® & News

Nearby

Air Quality

  Air Quality AQ Index Pollutant
Not available.

Snow Depth

Station Depth Elevation

Earthquake Activity

City Distance Mag. Time & Date
Minimum magnitude displayed is 2.5.

Coastal Water Temperatures

Place Temperature

Stations

Nearby Weather Stations

Station Location Temp. Windchill Dew Point Humidity Wind Precip. Elev Updated Type
                   

Watches & Warnings

There are currently no watches in effect.